Time;durP1;ratioP1;P1;durP2;ratioP2;P2;SDS_P1;SDS_P2;PMS_P1;PMS_P2;Temp;Humidity;BMP_temperature;BMP_pressure;BME280_temperature;BME280_humidity;BME280_pressure;Samples;Min_cycle;Max_cycle;Signal;HPM_P1;HPM_P2
2024/02/04 00:01:09;;;;;;;3.20;2.22;;;9.50;99.90;;;;;;10061813;28;20219;-65
2024/02/04 00:05:59;;;;;;;4.15;2.60;;;9.50;99.90;;;;;;10061352;28;20044;-65
2024/02/04 00:10:50;;;;;;;2.95;1.85;;;9.50;99.90;;;;;;10056219;28;20030;-65
2024/02/04 00:15:41;;;;;;;3.78;2.20;;;9.50;99.90;;;;;;10057080;28;20369;-65
2024/02/04 00:20:35;;;;;;;3.88;2.05;;;9.40;99.90;;;;;;10061288;28;20061;-66
2024/02/04 00:25:26;;;;;;;3.22;1.83;;;9.40;99.90;;;;;;10054049;28;20025;-65
2024/02/04 00:30:16;;;;;;;3.92;2.10;;;9.40;99.90;;;;;;10061043;28;20030;-65
2024/02/04 00:35:07;;;;;;;5.15;2.80;;;9.30;99.90;;;;;;10060968;28;20031;-66
2024/02/04 00:39:58;;;;;;;3.88;2.15;;;9.30;99.90;;;;;;10059482;28;20044;-66
2024/02/04 00:44:49;;;;;;;4.18;2.30;;;9.40;99.90;;;;;;10056833;28;20095;-68
2024/02/04 00:49:39;;;;;;;4.25;2.15;;;9.30;99.90;;;;;;10045143;28;20507;-65
2024/02/04 00:54:30;;;;;;;3.67;2.10;;;9.20;99.90;;;;;;10048667;28;20036;-65
2024/02/04 00:59:20;;;;;;;4.45;2.03;;;9.20;99.90;;;;;;10060603;28;20021;-65
2024/02/04 01:04:11;;;;;;;3.17;1.95;;;9.30;99.90;;;;;;10060090;28;20037;-64
2024/02/04 01:09:05;;;;;;;4.03;2.30;;;9.20;99.90;;;;;;10046789;28;20060;-64
2024/02/04 01:13:56;;;;;;;2.78;1.70;;;9.20;99.90;;;;;;10059556;28;20109;-65
2024/02/04 01:18:46;;;;;;;5.07;2.08;;;9.20;99.90;;;;;;10048212;28;20130;-64
2024/02/04 01:23:37;;;;;;;2.95;2.13;;;9.20;99.90;;;;;;10049776;28;20534;-65
2024/02/04 01:28:27;;;;;;;5.88;2.25;;;9.10;99.90;;;;;;10057606;28;20029;-65
2024/02/04 01:33:18;;;;;;;3.17;2.20;;;9.20;99.90;;;;;;10057856;28;20021;-65
2024/02/04 01:38:09;;;;;;;3.15;1.80;;;9.20;99.90;;;;;;10049943;28;20032;-66
2024/02/04 01:42:59;;;;;;;3.45;1.95;;;9.20;99.90;;;;;;10043954;28;20117;-66
2024/02/04 01:47:50;;;;;;;3.55;2.20;;;9.10;99.90;;;;;;10036465;28;20017;-65
2024/02/04 01:52:45;;;;;;;3.45;2.10;;;9.10;99.90;;;;;;10045996;28;20573;-67
2024/02/04 01:57:36;;;;;;;3.20;2.35;;;9.00;99.90;;;;;;10056333;28;20021;-67
2024/02/04 02:02:26;;;;;;;3.13;2.20;;;9.10;99.90;;;;;;10056143;28;20121;-65
2024/02/04 02:07:20;;;;;;;3.10;1.90;;;9.10;99.90;;;;;;10057264;28;20102;-65
2024/02/04 02:12:31;;;;;;;2.95;1.92;;;9.10;99.90;;;;;;10052988;28;20060;-65
2024/02/04 02:17:29;;;;;;;3.47;2.17;;;9.10;99.90;;;;;;10055789;28;20018;-65
2024/02/04 02:22:36;;;;;;;2.90;2.53;;;9.10;99.90;;;;;;10057448;28;20035;-66
2024/02/04 02:27:27;;;;;;;2.72;2.08;;;9.10;99.90;;;;;;10055798;28;20021;-65
2024/02/04 02:32:18;;;;;;;4.30;2.45;;;9.00;99.90;;;;;;10049850;28;20478;-65
2024/02/04 02:37:12;;;;;;;4.95;2.10;;;9.00;99.90;;;;;;10056104;28;20018;-67
2024/02/04 02:42:05;;;;;;;3.03;2.13;;;9.00;99.90;;;;;;10051371;28;20052;-68
2024/02/04 02:46:58;;;;;;;3.47;2.60;;;9.00;99.90;;;;;;10052024;28;20088;-66
2024/02/04 02:51:48;;;;;;;3.22;1.88;;;9.10;99.90;;;;;;10056182;28;20060;-65
2024/02/04 02:56:39;;;;;;;2.60;1.90;;;9.10;99.90;;;;;;10053989;28;20042;-66
2024/02/04 03:01:31;;;;;;;3.00;2.10;;;9.00;99.90;;;;;;10056142;28;21440;-65
2024/02/04 03:06:21;;;;;;;3.30;2.15;;;9.00;99.90;;;;;;10064054;28;20609;-68
2024/02/04 03:11:12;;;;;;;3.50;2.28;;;9.00;99.90;;;;;;10063114;28;20033;-65
2024/02/04 03:16:03;;;;;;;2.70;2.10;;;9.00;99.90;;;;;;10049919;28;20029;-65
2024/02/04 03:20:53;;;;;;;3.72;2.22;;;8.80;99.90;;;;;;10055159;28;20484;-65
2024/02/04 03:25:44;;;;;;;2.20;1.58;;;8.90;99.90;;;;;;10053128;28;20030;-68
2024/02/04 03:30:34;;;;;;;3.28;2.17;;;8.90;99.90;;;;;;10043122;28;20543;-67
2024/02/04 03:35:25;;;;;;;4.13;2.08;;;8.90;99.90;;;;;;10038939;28;20060;-66
2024/02/04 03:40:16;;;;;;;2.47;1.70;;;8.90;99.90;;;;;;10059940;28;20083;-66
2024/02/04 03:45:07;;;;;;;4.18;1.90;;;8.90;99.90;;;;;;10053537;28;20096;-65
2024/02/04 03:49:57;;;;;;;3.42;2.30;;;8.90;99.90;;;;;;10062745;28;20033;-65
2024/02/04 03:54:48;;;;;;;3.35;2.22;;;8.90;99.90;;;;;;10048128;28;20067;-66
2024/02/04 03:59:39;;;;;;;4.65;2.70;;;8.90;99.90;;;;;;10039480;28;20088;-65
2024/02/04 04:04:29;;;;;;;2.72;1.77;;;8.80;99.90;;;;;;10049790;28;20048;-65
2024/02/04 04:09:20;;;;;;;3.78;2.40;;;8.80;99.90;;;;;;10053335;28;20029;-65
2024/02/04 04:14:10;;;;;;;3.42;2.25;;;8.80;99.90;;;;;;10055238;28;20025;-65
2024/02/04 04:19:01;;;;;;;2.40;1.90;;;8.70;99.90;;;;;;10049594;28;20056;-65
2024/02/04 04:23:52;;;;;;;3.03;1.92;;;8.60;99.90;;;;;;10059182;28;20037;-65
2024/02/04 04:28:42;;;;;;;3.08;2.33;;;8.70;99.90;;;;;;10061486;28;20034;-65
2024/02/04 04:33:33;;;;;;;2.92;1.98;;;8.60;99.90;;;;;;10061407;28;20026;-66
2024/02/04 04:38:23;;;;;;;4.30;2.20;;;8.60;99.90;;;;;;10046199;28;20041;-67
2024/02/04 04:43:14;;;;;;;3.88;2.30;;;8.60;99.90;;;;;;10044434;28;20029;-65
2024/02/04 04:48:07;;;;;;;3.72;1.90;;;8.70;99.90;;;;;;10039641;28;20109;-65
2024/02/04 04:52:58;;;;;;;3.65;2.40;;;8.70;99.90;;;;;;10043069;28;20013;-65
2024/02/04 04:57:48;;;;;;;3.20;1.85;;;8.70;99.90;;;;;;10030179;28;20652;-65
2024/02/04 05:02:43;;;;;;;2.67;1.60;;;8.70;99.90;;;;;;10056901;28;20627;-66
2024/02/04 05:07:34;;;;;;;2.70;1.50;;;8.70;99.90;;;;;;10053247;28;20030;-65
2024/02/04 05:12:24;;;;;;;2.63;1.40;;;8.70;99.90;;;;;;10059372;28;20446;-65
2024/02/04 05:17:15;;;;;;;2.30;1.50;;;8.70;99.90;;;;;;10059687;28;20094;-65
2024/02/04 05:22:06;;;;;;;1.63;1.13;;;8.60;99.90;;;;;;10055766;28;20076;-66
2024/02/04 05:26:56;;;;;;;2.25;1.10;;;8.70;99.90;;;;;;10057385;28;20036;-66
2024/02/04 05:31:47;;;;;;;4.25;1.50;;;8.70;99.90;;;;;;10057438;28;20543;-65
2024/02/04 05:36:38;;;;;;;2.63;1.90;;;8.70;99.90;;;;;;10056599;28;20056;-65
2024/02/04 05:41:28;;;;;;;1.80;1.15;;;8.70;99.90;;;;;;10057106;28;20116;-65
2024/02/04 05:46:19;;;;;;;2.00;1.00;;;8.70;99.90;;;;;;10058225;28;20564;-65
2024/02/04 05:51:10;;;;;;;1.38;1.10;;;8.70;99.90;;;;;;10045390;28;20029;-65
2024/02/04 05:56:00;;;;;;;1.90;1.40;;;8.70;99.90;;;;;;10056919;28;20029;-65
2024/02/04 06:00:51;;;;;;;2.28;0.90;;;8.80;99.90;;;;;;10043664;28;20029;-65
2024/02/04 06:05:42;;;;;;;1.58;1.13;;;8.80;99.90;;;;;;10054880;28;20270;-65
2024/02/04 06:10:32;;;;;;;1.70;1.40;;;8.70;99.90;;;;;;10057735;28;20018;-64
2024/02/04 06:15:23;;;;;;;2.50;1.00;;;8.60;99.90;;;;;;10056957;28;20491;-65
2024/02/04 06:20:14;;;;;;;1.55;1.20;;;8.60;99.90;;;;;;10057159;28;20502;-66
2024/02/04 06:25:05;;;;;;;1.83;1.02;;;8.70;99.90;;;;;;10056580;28;20033;-66
2024/02/04 06:29:55;;;;;;;2.05;1.15;;;8.70;99.90;;;;;;10053623;28;20027;-66
2024/02/04 06:34:47;;;;;;;1.98;1.38;;;8.60;99.90;;;;;;10051822;28;20539;-66
2024/02/04 06:39:38;;;;;;;1.35;1.10;;;8.60;99.90;;;;;;10056066;28;20017;-68
2024/02/04 06:44:28;;;;;;;2.40;0.95;;;8.60;99.90;;;;;;10055628;28;20447;-66
2024/02/04 06:49:19;;;;;;;1.40;0.90;;;8.70;99.90;;;;;;10053741;28;20037;-65
2024/02/04 06:54:10;;;;;;;1.80;1.48;;;8.70;99.90;;;;;;10049081;28;20034;-68
2024/02/04 06:59:03;;;;;;;2.08;1.20;;;8.60;99.90;;;;;;10038202;28;20109;-66
2024/02/04 07:03:54;;;;;;;3.33;1.13;;;8.60;99.90;;;;;;10043498;28;20033;-65
2024/02/04 07:08:45;;;;;;;1.45;1.23;;;8.60;99.90;;;;;;10055733;28;20072;-64
2024/02/04 07:13:35;;;;;;;1.17;1.02;;;8.70;99.90;;;;;;10052108;28;20465;-66
2024/02/04 07:18:26;;;;;;;1.52;0.70;;;8.60;99.90;;;;;;10054205;28;20045;-64
2024/02/04 07:23:17;;;;;;;1.08;0.82;;;8.70;99.90;;;;;;10054587;28;20037;-66
2024/02/04 07:28:07;;;;;;;1.10;0.63;;;8.70;99.90;;;;;;10044990;28;20038;-66
2024/02/04 07:32:58;;;;;;;3.45;1.40;;;8.70;99.90;;;;;;10055397;28;20108;-68
2024/02/04 07:37:49;;;;;;;1.52;0.95;;;8.70;99.90;;;;;;10055562;28;20073;-65
2024/02/04 07:42:39;;;;;;;1.55;1.00;;;8.70;99.90;;;;;;10053797;28;20096;-65
2024/02/04 07:47:33;;;;;;;2.50;1.33;;;8.70;99.90;;;;;;10057853;28;20036;-65
2024/02/04 07:52:24;;;;;;;1.00;0.80;;;8.70;99.90;;;;;;10063065;28;20033;-67
2024/02/04 07:57:14;;;;;;;1.50;0.88;;;8.70;99.90;;;;;;10050332;28;20037;-65
2024/02/04 08:02:06;;;;;;;3.05;1.10;;;8.70;99.90;;;;;;10062549;28;20156;-65
2024/02/04 08:06:57;;;;;;;1.20;1.10;;;8.70;99.90;;;;;;10061694;28;20029;-66
2024/02/04 08:11:48;;;;;;;2.22;0.80;;;8.70;99.90;;;;;;10051717;28;20040;-65
2024/02/04 08:16:38;;;;;;;0.82;0.70;;;8.70;99.90;;;;;;10060268;28;20116;-65
2024/02/04 08:21:31;;;;;;;3.15;0.85;;;8.70;99.90;;;;;;10056025;28;20124;-65
2024/02/04 08:26:21;;;;;;;1.25;0.70;;;8.80;99.90;;;;;;10061637;28;20668;-64
2024/02/04 08:31:12;;;;;;;1.38;1.02;;;8.80;99.90;;;;;;10056573;28;20244;-66
2024/02/04 08:36:06;;;;;;;1.15;0.80;;;8.80;99.90;;;;;;10060638;28;20021;-65
2024/02/04 08:40:57;;;;;;;1.52;0.88;;;8.90;99.90;;;;;;10054575;28;20043;-64
2024/02/04 08:45:48;;;;;;;1.70;1.00;;;8.90;99.90;;;;;;10060630;28;20483;-65
2024/02/04 08:50:38;;;;;;;1.30;0.98;;;8.90;99.90;;;;;;10054669;28;20021;-65
2024/02/04 08:55:29;;;;;;;1.08;0.90;;;8.90;99.90;;;;;;10046679;28;20030;-64
2024/02/04 09:00:20;;;;;;;1.67;1.08;;;9.00;99.90;;;;;;10054586;28;20388;-66
2024/02/04 09:05:10;;;;;;;1.00;0.90;;;9.00;99.90;;;;;;10060027;28;20037;-65
2024/02/04 09:10:01;;;;;;;1.90;0.73;;;9.00;99.90;;;;;;10059255;28;20041;-66
2024/02/04 09:14:52;;;;;;;1.25;0.70;;;9.10;99.90;;;;;;10048221;28;20033;-65
2024/02/04 09:19:42;;;;;;;1.20;0.85;;;9.10;99.90;;;;;;10049111;28;20053;-66
2024/02/04 09:24:33;;;;;;;0.70;0.60;;;9.10;99.90;;;;;;10052933;28;20080;-66
2024/02/04 09:29:24;;;;;;;1.08;0.73;;;9.20;99.90;;;;;;10058962;28;20025;-65
2024/02/04 09:34:15;;;;;;;0.63;0.63;;;9.30;99.90;;;;;;10047634;28;20030;-66
2024/02/04 09:39:06;;;;;;;0.95;0.65;;;9.20;99.90;;;;;;10037410;28;20026;-65
2024/02/04 09:43:58;;;;;;;2.03;0.95;;;9.40;99.90;;;;;;10056606;28;20029;-66
2024/02/04 09:48:51;;;;;;;1.10;0.60;;;9.40;99.90;;;;;;10057571;28;20030;-67
2024/02/04 09:53:49;;;;;;;1.15;0.50;;;9.40;99.90;;;;;;10056607;28;20037;-65
2024/02/04 09:58:43;;;;;;;1.23;1.08;;;9.60;99.90;;;;;;10055707;28;20059;-66
2024/02/04 10:03:33;;;;;;;1.08;0.50;;;9.60;99.90;;;;;;10048473;28;20029;-67
2024/02/04 10:08:24;;;;;;;1.58;0.60;;;9.60;99.90;;;;;;10051345;28;20032;-65
2024/02/04 10:13:15;;;;;;;0.90;0.80;;;9.70;99.90;;;;;;10054019;28;20038;-65
2024/02/04 10:18:07;;;;;;;0.52;0.50;;;9.80;99.90;;;;;;10049729;28;20116;-67
2024/02/04 10:22:58;;;;;;;0.73;0.47;;;9.90;99.90;;;;;;10046749;28;20030;-66
2024/02/04 10:27:48;;;;;;;1.13;0.50;;;9.90;99.90;;;;;;10057102;28;20032;-66
2024/02/04 10:32:39;;;;;;;1.02;0.43;;;9.90;99.90;;;;;;10057371;28;20021;-65
2024/02/04 10:37:30;;;;;;;1.80;0.57;;;9.90;99.90;;;;;;10057129;28;20025;-67
2024/02/04 10:42:25;;;;;;;1.83;0.50;;;9.90;99.90;;;;;;10038363;28;20042;-65
2024/02/04 10:47:22;;;;;;;1.07;0.63;;;9.90;99.90;;;;;;10033344;28;20041;-65
2024/02/04 10:52:13;;;;;;;1.33;0.40;;;9.90;99.90;;;;;;10043824;28;20260;-65
2024/02/04 10:57:09;;;;;;;1.00;0.70;;;9.90;99.90;;;;;;10054319;28;20017;-65
2024/02/04 11:02:00;;;;;;;0.60;0.40;;;10.10;99.90;;;;;;10053003;28;20037;-66
2024/02/04 11:06:53;;;;;;;0.40;0.40;;;10.20;99.90;;;;;;10054917;28;20014;-66
2024/02/04 11:11:44;;;;;;;0.68;0.43;;;10.20;99.90;;;;;;10049535;28;20033;-66
2024/02/04 11:16:50;;;;;;;1.27;0.90;;;10.20;99.90;;;;;;10054224;28;20040;-66
2024/02/04 11:22:16;;;;;;;0.97;0.50;;;10.20;99.90;;;;;;10057660;28;20053;-65
2024/02/04 11:27:08;;;;;;;0.45;0.45;;;10.20;99.90;;;;;;10061595;28;20801;-66
2024/02/04 11:31:58;;;;;;;1.20;0.70;;;10.20;99.90;;;;;;10059358;28;20519;-65
2024/02/04 11:36:49;;;;;;;1.90;0.88;;;10.20;99.90;;;;;;10063000;28;20029;-65
2024/02/04 11:41:46;;;;;;;1.02;0.60;;;10.30;99.90;;;;;;10057175;28;20041;-66
2024/02/04 11:46:37;;;;;;;1.05;0.68;;;10.20;99.90;;;;;;10061134;28;20032;-65
2024/02/04 11:51:28;;;;;;;1.30;0.50;;;10.20;99.90;;;;;;10059788;28;20028;-66
2024/02/04 11:56:19;;;;;;;0.57;0.45;;;10.30;99.90;;;;;;10059930;28;20492;-67
2024/02/04 12:01:11;;;;;;;0.93;0.50;;;10.30;99.90;;;;;;10062613;28;20390;-67
2024/02/04 12:06:03;;;;;;;0.80;0.50;;;10.30;99.90;;;;;;10055292;28;20376;-66
2024/02/04 12:10:55;;;;;;;0.88;0.65;;;10.30;99.90;;;;;;10057304;28;20034;-66
2024/02/04 12:15:47;;;;;;;1.67;0.85;;;10.40;99.90;;;;;;10061221;28;20057;-66
2024/02/04 12:20:38;;;;;;;1.80;0.73;;;10.40;99.90;;;;;;10046441;28;20053;-66
2024/02/04 12:25:30;;;;;;;1.10;0.88;;;10.50;99.90;;;;;;10034552;28;20095;-66
2024/02/04 12:30:21;;;;;;;0.65;0.47;;;10.50;99.90;;;;;;10040290;28;20033;-68
2024/02/04 12:35:14;;;;;;;1.42;0.52;;;10.60;99.90;;;;;;10053137;28;20280;-68
2024/02/04 12:40:06;;;;;;;0.80;0.50;;;10.50;99.90;;;;;;10058373;28;20030;-67
2024/02/04 12:44:58;;;;;;;0.85;0.40;;;10.50;99.90;;;;;;10057207;28;20045;-65
2024/02/04 12:49:49;;;;;;;0.15;0.15;;;10.40;99.90;;;;;;10060519;28;20024;-65
2024/02/04 12:54:44;;;;;;;2.15;0.65;;;10.40;99.90;;;;;;10057117;28;20029;-66
2024/02/04 12:59:34;;;;;;;1.95;0.60;;;10.40;99.90;;;;;;10059183;28;20022;-66
2024/02/04 13:04:25;;;;;;;0.82;0.68;;;10.40;99.90;;;;;;10051504;28;20504;-65
2024/02/04 13:09:16;;;;;;;1.08;0.60;;;10.40;99.90;;;;;;10056346;28;20025;-65
2024/02/04 13:14:07;;;;;;;1.30;0.60;;;10.50;99.90;;;;;;10047205;28;20029;-65
2024/02/04 13:18:57;;;;;;;2.03;0.65;;;10.50;99.90;;;;;;10059238;28;20049;-66
2024/02/04 13:23:50;;;;;;;0.90;0.50;;;10.50;99.90;;;;;;10059523;28;20090;-65
2024/02/04 13:28:41;;;;;;;1.15;0.95;;;10.50;99.90;;;;;;10058943;28;20459;-65
2024/02/04 13:33:32;;;;;;;1.70;0.90;;;10.50;99.90;;;;;;10058170;28;20029;-66
2024/02/04 13:38:23;;;;;;;1.33;0.70;;;10.50;99.90;;;;;;10058943;28;20025;-65
2024/02/04 13:43:17;;;;;;;1.50;0.95;;;10.50;99.90;;;;;;10055481;28;20087;-67
2024/02/04 13:48:07;;;;;;;1.08;0.60;;;10.50;99.90;;;;;;10050346;28;20021;-67
2024/02/04 13:52:58;;;;;;;0.45;0.32;;;10.50;99.90;;;;;;10058176;28;20360;-67
2024/02/04 13:57:49;;;;;;;0.95;0.40;;;10.40;99.90;;;;;;10056704;28;20033;-68
2024/02/04 14:02:40;;;;;;;2.40;0.45;;;10.50;99.90;;;;;;10053895;28;20111;-65
2024/02/04 14:07:30;;;;;;;0.70;0.40;;;10.50;99.90;;;;;;10039652;28;20029;-65
2024/02/04 14:12:21;;;;;;;1.23;0.55;;;10.50;99.90;;;;;;10046282;28;20514;-66
2024/02/04 14:17:14;;;;;;;1.25;0.63;;;10.50;99.90;;;;;;10052117;28;20586;-66
2024/02/04 14:22:05;;;;;;;0.68;0.47;;;10.60;99.90;;;;;;10057265;28;20080;-65
2024/02/04 14:26:58;;;;;;;1.23;0.60;;;10.50;99.90;;;;;;10055614;28;20415;-66
2024/02/04 14:31:50;;;;;;;1.73;0.60;;;10.60;99.90;;;;;;10055916;28;20059;-65
2024/02/04 14:36:41;;;;;;;2.20;1.10;;;10.70;99.90;;;;;;10056875;28;20104;-65
2024/02/04 14:41:34;;;;;;;1.42;0.60;;;10.70;99.90;;;;;;10056254;28;20037;-65
2024/02/04 14:46:25;;;;;;;1.63;0.77;;;10.70;99.90;;;;;;10087372;28;20033;-68
2024/02/04 14:51:18;;;;;;;1.88;1.05;;;10.70;99.90;;;;;;10055408;28;20041;-65
2024/02/04 14:56:09;;;;;;;2.15;0.90;;;10.80;99.90;;;;;;10053055;28;20036;-65
2024/02/04 15:01:00;;;;;;;1.55;0.93;;;10.80;99.90;;;;;;10032533;28;20014;-65
2024/02/04 15:05:51;;;;;;;1.60;1.20;;;10.80;99.90;;;;;;10036546;28;20026;-65
2024/02/04 15:10:42;;;;;;;51.70;22.13;;;10.80;99.90;;;;;;10041011;28;20620;-66
2024/02/04 15:15:33;;;;;;;74.78;30.33;;;10.90;99.90;;;;;;10062728;28;20029;-67
2024/02/04 15:20:24;;;;;;;14.55;8.35;;;10.90;99.90;;;;;;10077023;28;20040;-66
2024/02/04 15:25:17;;;;;;;2.88;1.45;;;11.00;99.90;;;;;;10059561;28;20501;-65
2024/02/04 15:30:09;;;;;;;2.47;1.42;;;11.00;99.90;;;;;;10068720;28;20434;-69
2024/02/04 15:35:00;;;;;;;1.58;0.90;;;10.90;99.90;;;;;;10076154;28;20459;-67
2024/02/04 15:39:51;;;;;;;1.10;0.85;;;10.90;99.90;;;;;;10057465;28;20056;-67
2024/02/04 15:44:42;;;;;;;1.80;1.30;;;10.90;99.90;;;;;;10071351;28;20061;-67
2024/02/04 15:49:33;;;;;;;1.75;0.80;;;10.90;99.90;;;;;;10067042;28;20041;-68
2024/02/04 15:54:24;;;;;;;0.68;0.50;;;10.90;99.90;;;;;;10050078;28;20580;-67
2024/02/04 15:59:18;;;;;;;1.40;0.80;;;10.90;99.90;;;;;;10047826;28;20038;-67
2024/02/04 16:04:09;;;;;;;1.15;0.57;;;10.90;99.90;;;;;;10035904;28;20088;-67
2024/02/04 16:09:01;;;;;;;1.40;0.82;;;10.90;99.90;;;;;;10056599;28;20560;-66
2024/02/04 16:13:52;;;;;;;0.88;0.40;;;10.90;99.90;;;;;;10058016;28;20040;-67
2024/02/04 16:18:43;;;;;;;1.40;0.85;;;10.80;99.90;;;;;;10059991;28;20056;-66
2024/02/04 16:23:34;;;;;;;2.05;0.95;;;10.80;99.90;;;;;;10060169;28;20052;-67
2024/02/04 16:28:25;;;;;;;2.38;0.60;;;10.80;99.90;;;;;;10059479;28;20033;-67
2024/02/04 16:33:16;;;;;;;1.13;0.50;;;10.80;99.90;;;;;;10058328;28;20518;-67
2024/02/04 16:38:06;;;;;;;1.05;0.57;;;10.80;99.90;;;;;;10061181;28;20027;-68
2024/02/04 16:42:57;;;;;;;1.27;0.60;;;10.80;99.90;;;;;;10062069;28;20504;-68
2024/02/04 16:47:48;;;;;;;0.95;0.55;;;10.70;99.90;;;;;;10054456;28;20044;-68
2024/02/04 16:52:38;;;;;;;1.73;0.45;;;10.70;99.90;;;;;;10049556;28;20033;-68
2024/02/04 16:57:29;;;;;;;2.75;1.10;;;10.60;99.90;;;;;;10059100;28;20032;-68
2024/02/04 17:02:22;;;;;;;1.75;0.70;;;10.60;99.90;;;;;;10050562;28;20034;-69
2024/02/04 17:07:13;;;;;;;1.50;0.90;;;10.60;99.90;;;;;;10045009;28;20025;-68
2024/02/04 17:12:04;;;;;;;0.80;0.80;;;10.60;99.90;;;;;;10038513;28;20035;-67
2024/02/04 17:17:17;;;;;;;2.17;0.93;;;10.60;99.90;;;;;;10051038;28;20032;-67
2024/02/04 17:22:18;;;;;;;1.45;0.90;;;10.60;99.90;;;;;;10047110;28;20360;-67
2024/02/04 17:27:11;;;;;;;0.90;0.52;;;10.50;99.90;;;;;;10048465;28;20029;-68
2024/02/04 17:32:03;;;;;;;0.70;0.43;;;10.60;99.90;;;;;;10050734;28;20490;-69
2024/02/04 17:36:55;;;;;;;1.35;0.45;;;10.50;99.90;;;;;;10058497;28;20041;-68
2024/02/04 17:41:45;;;;;;;0.85;0.50;;;10.50;99.90;;;;;;10054910;28;20640;-70
2024/02/04 17:46:36;;;;;;;0.60;0.50;;;10.50;99.90;;;;;;10049284;28;20060;-68
2024/02/04 17:51:26;;;;;;;1.52;0.70;;;10.60;99.90;;;;;;10047660;28;20022;-68
2024/02/04 17:56:17;;;;;;;0.70;0.60;;;10.60;99.90;;;;;;10044922;28;20048;-68
2024/02/04 18:01:08;;;;;;;1.00;0.57;;;10.70;99.90;;;;;;10041111;28;20418;-67
2024/02/04 18:05:59;;;;;;;1.70;0.82;;;10.60;99.90;;;;;;10054176;28;20033;-67
2024/02/04 18:10:49;;;;;;;2.33;0.80;;;10.70;99.90;;;;;;10056661;28;20034;-67
2024/02/04 18:15:40;;;;;;;2.58;1.05;;;10.70;99.90;;;;;;10062567;28;20021;-68
2024/02/04 18:20:31;;;;;;;1.67;0.90;;;10.70;99.90;;;;;;10063606;28;20549;-66
2024/02/04 18:25:21;;;;;;;2.60;1.25;;;10.60;99.90;;;;;;10072881;28;20045;-69
2024/02/04 18:30:16;;;;;;;1.60;1.38;;;10.60;99.90;;;;;;10056640;28;20034;-66
2024/02/04 18:35:07;;;;;;;3.20;1.83;;;10.50;99.90;;;;;;10056316;28;20035;-71
2024/02/04 18:39:59;;;;;;;2.50;1.48;;;10.50;99.90;;;;;;10050755;28;20056;-69
2024/02/04 18:44:50;;;;;;;1.65;1.30;;;10.50;99.90;;;;;;10050230;28;20045;-70
2024/02/04 18:49:42;;;;;;;2.55;1.40;;;10.50;99.90;;;;;;10041449;28;20025;-70
2024/02/04 18:54:35;;;;;;;3.33;1.65;;;10.50;99.90;;;;;;10045529;28;20128;-71
2024/02/04 18:59:27;;;;;;;1.52;1.25;;;10.30;99.90;;;;;;10055900;28;20518;-68
2024/02/04 19:04:18;;;;;;;2.30;1.42;;;10.40;99.90;;;;;;10045823;28;20041;-70
2024/02/04 19:09:12;;;;;;;2.90;1.83;;;10.40;99.90;;;;;;10056106;28;20064;-71
2024/02/04 19:14:03;;;;;;;2.25;1.38;;;10.30;99.90;;;;;;10053658;28;20544;-70
2024/02/04 19:18:57;;;;;;;2.25;1.33;;;10.30;99.90;;;;;;10050336;28;20049;-65
2024/02/04 19:23:48;;;;;;;1.88;1.08;;;10.30;99.90;;;;;;10045221;28;20037;-63
2024/02/04 19:28:39;;;;;;;3.08;0.90;;;10.30;99.90;;;;;;10044872;28;20793;-66
2024/02/04 19:33:29;;;;;;;1.77;1.02;;;10.30;99.90;;;;;;10055665;28;20041;-65
2024/02/04 19:38:20;;;;;;;2.03;1.30;;;10.30;99.90;;;;;;10049649;28;20581;-64
2024/02/04 19:43:11;;;;;;;1.48;0.98;;;10.30;99.90;;;;;;10047311;28;20033;-63
2024/02/04 19:48:01;;;;;;;1.38;1.02;;;10.30;99.90;;;;;;10038467;28;20082;-67
2024/02/04 19:52:52;;;;;;;1.50;1.20;;;10.30;99.90;;;;;;10053474;28;20293;-68
2024/02/04 19:57:43;;;;;;;2.17;1.45;;;10.30;99.90;;;;;;10076635;28;20036;-69
2024/02/04 20:02:33;;;;;;;1.55;0.80;;;10.30;99.90;;;;;;10070298;28;20048;-68
2024/02/04 20:07:24;;;;;;;1.63;1.40;;;10.20;99.90;;;;;;10076445;28;20033;-67
2024/02/04 20:12:16;;;;;;;2.97;1.13;;;10.30;99.90;;;;;;10077090;28;20037;-64
2024/02/04 20:17:06;;;;;;;1.90;0.85;;;10.30;99.90;;;;;;10085332;28;20025;-65
2024/02/04 20:21:57;;;;;;;1.25;0.98;;;10.20;99.90;;;;;;10075967;28;20036;-65
2024/02/04 20:26:48;;;;;;;1.38;0.93;;;10.30;99.90;;;;;;10074361;28;20025;-71
2024/02/04 20:31:40;;;;;;;1.90;0.70;;;10.20;99.90;;;;;;10073622;28;20113;-64
2024/02/04 20:36:36;;;;;;;1.48;0.80;;;10.30;99.90;;;;;;10073531;28;20479;-67
2024/02/04 20:41:27;;;;;;;0.98;0.60;;;10.20;99.90;;;;;;10103439;28;20155;-68
2024/02/04 20:46:20;;;;;;;1.63;1.10;;;10.10;99.90;;;;;;10071255;28;20172;-65
2024/02/04 20:51:12;;;;;;;1.05;0.93;;;10.10;99.90;;;;;;10067676;28;20449;-65
2024/02/04 20:56:02;;;;;;;1.95;1.00;;;10.10;99.90;;;;;;10074749;28;20106;-65
2024/02/04 21:00:53;;;;;;;1.48;0.98;;;10.10;99.90;;;;;;10074612;28;20083;-68
2024/02/04 21:05:44;;;;;;;2.17;1.50;;;10.10;99.90;;;;;;10074776;28;20094;-67
2024/02/04 21:10:36;;;;;;;2.25;1.30;;;10.10;99.90;;;;;;10072527;28;20094;-64
2024/02/04 21:15:29;;;;;;;1.75;0.88;;;10.10;99.90;;;;;;10075157;28;20025;-66
2024/02/04 21:20:23;;;;;;;1.55;0.90;;;10.00;99.90;;;;;;10074901;28;20124;-66
2024/02/04 21:25:14;;;;;;;1.90;1.02;;;10.00;99.90;;;;;;10070485;28;20037;-65
2024/02/04 21:30:07;;;;;;;1.25;0.80;;;9.90;99.90;;;;;;10068898;28;20025;-65
2024/02/04 21:34:57;;;;;;;1.90;1.08;;;9.90;99.90;;;;;;10060927;28;20048;-63
2024/02/04 21:39:51;;;;;;;1.67;0.95;;;9.80;99.90;;;;;;10075791;28;20062;-65
2024/02/04 21:44:44;;;;;;;2.40;1.00;;;9.80;99.90;;;;;;10067391;28;20159;-64
2024/02/04 21:49:34;;;;;;;2.42;1.10;;;9.80;99.90;;;;;;10058656;28;20049;-64
2024/02/04 21:54:26;;;;;;;2.08;0.70;;;9.70;99.90;;;;;;10058635;28;20046;-64
2024/02/04 21:59:19;;;;;;;2.25;1.10;;;9.70;99.90;;;;;;10055776;28;20052;-64
2024/02/04 22:04:15;;;;;;;1.92;1.20;;;9.70;99.90;;;;;;10057389;28;20107;-66
2024/02/04 22:09:07;;;;;;;4.30;1.27;;;9.60;99.90;;;;;;10048990;28;20113;-65
2024/02/04 22:13:58;;;;;;;2.72;0.98;;;9.60;99.90;;;;;;10051298;28;20047;-64
2024/02/04 22:18:48;;;;;;;1.13;1.00;;;9.60;99.90;;;;;;10057391;28;20045;-71
2024/02/04 22:23:43;;;;;;;2.25;1.00;;;9.50;99.90;;;;;;10057141;28;20106;-70
2024/02/04 22:28:33;;;;;;;2.63;1.23;;;9.50;99.90;;;;;;10053803;28;20018;-65
2024/02/04 22:33:26;;;;;;;1.38;1.00;;;9.50;99.90;;;;;;10056753;28;20029;-71
2024/02/04 22:38:17;;;;;;;1.15;0.90;;;9.60;99.90;;;;;;10049246;28;20032;-64
2024/02/04 22:43:07;;;;;;;1.65;1.15;;;9.50;99.90;;;;;;10072195;28;20143;-66
2024/02/04 22:47:58;;;;;;;1.50;1.10;;;9.50;99.90;;;;;;10064265;28;20022;-64
2024/02/04 22:52:51;;;;;;;1.30;1.00;;;9.50;99.90;;;;;;10064181;28;20028;-65
2024/02/04 22:57:42;;;;;;;1.40;1.00;;;9.40;99.90;;;;;;10072875;28;20029;-70
2024/02/04 23:02:33;;;;;;;2.80;1.35;;;9.50;99.90;;;;;;10060175;28;20044;-72
2024/02/04 23:07:23;;;;;;;1.60;0.93;;;9.50;99.90;;;;;;10038617;28;20030;-71
2024/02/04 23:12:14;;;;;;;3.30;1.02;;;9.40;99.90;;;;;;10041288;28;20034;-69
2024/02/04 23:17:05;;;;;;;1.00;0.80;;;9.40;99.90;;;;;;10042746;28;20033;-72
2024/02/04 23:21:55;;;;;;;1.10;0.98;;;9.40;99.90;;;;;;10058238;28;20037;-68
2024/02/04 23:26:46;;;;;;;1.95;1.23;;;9.40;99.90;;;;;;10057334;28;20117;-66
2024/02/04 23:31:39;;;;;;;1.55;1.00;;;9.40;99.90;;;;;;10052747;28;20069;-70
2024/02/04 23:36:30;;;;;;;1.95;1.20;;;9.40;99.90;;;;;;10042282;28;20061;-71
2024/02/04 23:41:21;;;;;;;1.08;0.70;;;9.40;99.90;;;;;;10049243;28;20033;-70
2024/02/04 23:46:14;;;;;;;1.42;1.08;;;9.30;99.90;;;;;;10046191;28;20053;-70
2024/02/04 23:51:04;;;;;;;0.73;0.65;;;9.30;99.90;;;;;;10054965;28;20049;-67
2024/02/04 23:55:55;;;;;;;2.00;0.93;;;9.30;99.90;;;;;;10061483;28;20022;-65
